createdAt,value
2019-04-16T00:00:43.591Z,958.9
2019-04-16T00:10:47.037Z,960.4
2019-04-16T00:20:50.481Z,959.7
2019-04-16T00:30:53.935Z,959.8
2019-04-16T00:41:02.487Z,960.8
2019-04-16T00:51:06.165Z,961.2
2019-04-16T01:01:09.651Z,960.3
2019-04-16T01:11:13.082Z,961.1
2019-04-16T01:21:16.531Z,960.9
2019-04-16T01:31:19.956Z,960.6
2019-04-16T01:41:23.367Z,961.5
2019-04-16T01:51:26.794Z,961.2
2019-04-16T02:01:30.233Z,961.3
2019-04-16T02:11:33.651Z,962.4
2019-04-16T02:21:42.268Z,962.4
2019-04-16T02:31:52.793Z,962.3
2019-04-16T02:41:58.951Z,962.6
2019-04-16T02:52:02.459Z,962.6
2019-04-16T03:02:05.929Z,963.2
2019-04-16T03:12:09.440Z,962.7
2019-04-16T03:22:13.066Z,963
2019-04-16T03:32:16.909Z,963.6
2019-04-16T03:42:20.426Z,963.4
2019-04-16T03:52:23.893Z,962.7
2019-04-16T04:02:27.354Z,963.9
2019-04-16T04:12:30.815Z,963.9
2019-04-16T04:22:34.271Z,964.3
2019-04-16T04:32:37.702Z,963.5
2019-04-16T04:42:41.271Z,963.9
2019-04-16T04:52:47.164Z,964
2019-04-16T05:02:50.619Z,964.3
2019-04-16T05:12:54.151Z,963.6
2019-04-16T05:22:58.445Z,964.4
2019-04-16T05:33:06.457Z,964.1
2019-04-16T05:43:09.922Z,963.8
2019-04-16T05:53:14.252Z,964
2019-04-16T06:03:22.865Z,962.3
2019-04-16T06:13:26.333Z,961.4
2019-04-16T06:23:33.033Z,961.4
2019-04-16T06:33:36.453Z,965.7
2019-04-16T06:43:39.854Z,960.3
2019-04-16T06:53:43.304Z,967
2019-04-16T07:03:46.761Z,966.4
2019-04-16T07:13:50.204Z,965.6
2019-04-16T07:23:59.050Z,965.9
2019-04-16T07:34:02.698Z,964.9
2019-04-16T07:44:11.587Z,963.7
2019-04-16T07:54:15.033Z,963.9
2019-04-16T08:04:36.319Z,963.4
2019-04-16T08:14:39.942Z,962.4
2019-04-16T08:24:43.411Z,961.8
2019-04-16T08:34:46.901Z,961.3
2019-04-16T08:44:50.360Z,961.1
2019-04-16T08:54:55.431Z,960.2
2019-04-16T09:04:59.067Z,967.3
2019-04-16T09:15:02.578Z,967.4
2019-04-16T09:25:06.026Z,960.3
2019-04-16T09:35:20.621Z,960
2019-04-16T09:45:25.669Z,967.2
2019-04-16T09:55:29.096Z,966.1
2019-04-16T10:05:32.513Z,966.3
2019-04-16T10:15:36.025Z,965.1
2019-04-16T10:25:39.539Z,964.7
2019-04-16T10:35:43.019Z,964.7
2019-04-16T10:45:46.510Z,964.1
2019-04-16T10:55:49.974Z,962.7
2019-04-16T11:05:58.105Z,963.7
2019-04-16T11:16:01.647Z,962.9
2019-04-16T11:26:05.086Z,962.9
2019-04-16T11:36:21.441Z,961.8
2019-04-16T11:46:24.958Z,961.7
2019-04-16T11:56:28.509Z,961.9
2019-04-16T12:06:32.050Z,962
2019-04-16T12:16:35.681Z,962.2
2019-04-16T12:26:39.268Z,962.6
2019-04-16T12:36:42.856Z,962.3
2019-04-16T12:46:46.599Z,962.5
2019-04-16T12:56:50.196Z,962.3
2019-04-16T13:06:53.646Z,962.4
2019-04-16T13:16:57.089Z,962.5
2019-04-16T13:27:00.929Z,962.6
2019-04-16T13:37:04.428Z,962.5
2019-04-16T13:47:07.905Z,962.5
2019-04-16T13:57:11.622Z,962.5
2019-04-16T14:07:15.071Z,962.6
2019-04-16T14:17:18.932Z,962.6
2019-04-16T14:27:22.379Z,962.7
2019-04-16T14:37:25.810Z,962.9
2019-04-16T14:47:38.428Z,962.9
2019-04-16T14:57:43.411Z,962.9
2019-04-16T15:07:46.841Z,963.1
2019-04-16T15:17:50.341Z,963.2
2019-04-16T15:27:53.785Z,963.6
2019-04-16T15:37:59.537Z,963.6
2019-04-16T15:48:02.975Z,963.7
2019-04-16T15:58:09.986Z,963.9
2019-04-16T16:08:13.429Z,964.2
2019-04-16T16:18:16.882Z,964.5
2019-04-16T16:28:20.330Z,964.6
2019-04-16T16:38:23.785Z,964.9
2019-04-16T16:48:27.219Z,965
2019-04-16T16:58:30.641Z,965.4
2019-04-16T17:08:34.060Z,965.8
2019-04-16T17:18:37.455Z,966.1
2019-04-16T17:28:44.467Z,966.3
2019-04-16T17:38:47.889Z,966.7
2019-04-16T17:48:51.319Z,967
2019-04-16T17:58:55.129Z,967.7
2019-04-16T18:08:58.813Z,961.1
2019-04-16T18:19:02.808Z,961.3
2019-04-16T18:29:06.515Z,961.9
2019-04-16T18:39:09.942Z,962.2
2019-04-16T18:49:18.318Z,962.4
2019-04-16T18:59:21.770Z,962.7
2019-04-16T19:09:25.257Z,963.5
2019-04-16T19:19:28.706Z,964
2019-04-16T19:29:32.145Z,964.2
2019-04-16T19:39:35.560Z,964.6
2019-04-16T19:49:39.002Z,965.1
2019-04-16T19:59:47.597Z,965.1
2019-04-16T20:09:51.090Z,965.2
2019-04-16T20:19:54.509Z,965
2019-04-16T20:29:57.925Z,965.6
2019-04-16T20:40:01.802Z,965.8
2019-04-16T20:50:05.704Z,966.2
2019-04-16T21:00:11.986Z,966.4
2019-04-16T21:10:15.403Z,966.5
2019-04-16T21:20:20.855Z,966.5
2019-04-16T21:30:24.303Z,966.5
2019-04-16T21:40:27.759Z,966.8
2019-04-16T21:50:31.218Z,967.1
2019-04-16T22:00:34.656Z,967.3
2019-04-16T22:10:38.078Z,967.6
2019-04-16T22:20:41.519Z,967.3
2019-04-16T22:30:44.962Z,967
2019-04-16T22:40:48.399Z,967.4
2019-04-16T22:50:51.828Z,967.8
2019-04-16T23:00:55.290Z,967.5
2019-04-16T23:10:58.847Z,967.6
2019-04-16T23:21:02.301Z,968.4
2019-04-16T23:31:05.855Z,968.3
2019-04-16T23:41:09.549Z,968.4
2019-04-16T23:51:16.011Z,968.4
